Forest City, California
Current Conditions -  °F | °C
As of 6:52 PM on Monday 22 Dec 2014 (Local Time) from KBLU Reporting Station
Clear Clear  
Wind Chill: 47°   Ceiling: Unl
Heat Index: 49°   Visibility: 10mi
Dew Point: 33°   Wind: 5mph
Humidity: 54%   Direction: 80°E
Pressure: 30.29"   Gusts: NA
Location:  39.5164°N, 120.718°W
Report Text: KBLU 230252Z AUTO 08004KT 10SM CLR 09/01 A3029 RMK AO2 SLP225 T00940006 53009
Loading
Personal Weather Stations






























Interactive Weather Map New forecast layout! Learn more

10-Day Weather Forecast

Advertisements
Track Severe Weather on mobile